sensor_id;sensor_type;location;lat;lon;timestamp;P1;durP1;ratioP1;P2;durP2;ratioP2
72284;SDS011;60220;53.552;10.092;2023-02-28T00:01:34;6.90;;;2.95;;
72284;SDS011;60220;53.552;10.092;2023-02-28T00:04:01;8.43;;;2.38;;
72284;SDS011;60220;53.552;10.092;2023-02-28T00:06:28;11.98;;;3.15;;
72284;SDS011;60220;53.552;10.092;2023-02-28T00:08:54;5.07;;;2.38;;
72284;SDS011;60220;53.552;10.092;2023-02-28T00:11:25;5.80;;;1.92;;
72284;SDS011;60220;53.552;10.092;2023-02-28T00:13:51;5.00;;;2.25;;
72284;SDS011;60220;53.552;10.092;2023-02-28T00:16:19;4.72;;;2.45;;
72284;SDS011;60220;53.552;10.092;2023-02-28T00:18:49;6.82;;;2.60;;
72284;SDS011;60220;53.552;10.092;2023-02-28T00:21:17;7.05;;;2.78;;
72284;SDS011;60220;53.552;10.092;2023-02-28T00:23:44;7.47;;;2.08;;
72284;SDS011;60220;53.552;10.092;2023-02-28T00:26:11;7.22;;;2.65;;
72284;SDS011;60220;53.552;10.092;2023-02-28T00:28:39;6.05;;;2.47;;
72284;SDS011;60220;53.552;10.092;2023-02-28T00:31:06;7.88;;;2.65;;
72284;SDS011;60220;53.552;10.092;2023-02-28T00:33:32;5.68;;;2.25;;
72284;SDS011;60220;53.552;10.092;2023-02-28T00:36:06;6.82;;;2.28;;
72284;SDS011;60220;53.552;10.092;2023-02-28T00:38:34;10.07;;;2.85;;
72284;SDS011;60220;53.552;10.092;2023-02-28T00:41:04;10.10;;;2.58;;
72284;SDS011;60220;53.552;10.092;2023-02-28T00:43:32;6.05;;;2.53;;
72284;SDS011;60220;53.552;10.092;2023-02-28T00:46:00;4.63;;;2.17;;
72284;SDS011;60220;53.552;10.092;2023-02-28T00:48:29;4.90;;;2.30;;
72284;SDS011;60220;53.552;10.092;2023-02-28T00:50:56;9.43;;;2.33;;
72284;SDS011;60220;53.552;10.092;2023-02-28T00:53:23;4.65;;;2.20;;
72284;SDS011;60220;53.552;10.092;2023-02-28T00:55:50;5.75;;;3.00;;
72284;SDS011;60220;53.552;10.092;2023-02-28T00:58:16;4.95;;;2.28;;
72284;SDS011;60220;53.552;10.092;2023-02-28T01:00:45;6.40;;;2.88;;
72284;SDS011;60220;53.552;10.092;2023-02-28T01:03:15;10.80;;;3.35;;
72284;SDS011;60220;53.552;10.092;2023-02-28T01:05:42;8.40;;;2.67;;
72284;SDS011;60220;53.552;10.092;2023-02-28T01:08:09;7.82;;;2.60;;
72284;SDS011;60220;53.552;10.092;2023-02-28T01:10:38;7.03;;;2.42;;
72284;SDS011;60220;53.552;10.092;2023-02-28T01:13:05;5.00;;;2.55;;
72284;SDS011;60220;53.552;10.092;2023-02-28T01:15:32;5.18;;;2.47;;
72284;SDS011;60220;53.552;10.092;2023-02-28T01:17:59;6.55;;;2.30;;
72284;SDS011;60220;53.552;10.092;2023-02-28T01:20:27;10.55;;;2.95;;
72284;SDS011;60220;53.552;10.092;2023-02-28T01:22:54;6.65;;;2.40;;
72284;SDS011;60220;53.552;10.092;2023-02-28T01:25:20;6.90;;;2.78;;
72284;SDS011;60220;53.552;10.092;2023-02-28T01:27:47;10.75;;;4.57;;
72284;SDS011;60220;53.552;10.092;2023-02-28T01:30:16;9.43;;;3.67;;
72284;SDS011;60220;53.552;10.092;2023-02-28T01:32:43;7.50;;;3.15;;
72284;SDS011;60220;53.552;10.092;2023-02-28T01:35:09;7.13;;;2.53;;
72284;SDS011;60220;53.552;10.092;2023-02-28T01:37:37;8.43;;;3.30;;
72284;SDS011;60220;53.552;10.092;2023-02-28T01:40:05;8.13;;;3.35;;
72284;SDS011;60220;53.552;10.092;2023-02-28T01:42:32;12.68;;;2.92;;
72284;SDS011;60220;53.552;10.092;2023-02-28T01:45:04;19.45;;;3.45;;
72284;SDS011;60220;53.552;10.092;2023-02-28T01:47:42;9.63;;;3.17;;
72284;SDS011;60220;53.552;10.092;2023-02-28T01:50:12;7.93;;;2.95;;
72284;SDS011;60220;53.552;10.092;2023-02-28T01:52:44;13.20;;;3.92;;
72284;SDS011;60220;53.552;10.092;2023-02-28T01:55:13;8.20;;;3.30;;
72284;SDS011;60220;53.552;10.092;2023-02-28T01:57:48;13.30;;;2.75;;
72284;SDS011;60220;53.552;10.092;2023-02-28T02:00:19;6.63;;;3.22;;
72284;SDS011;60220;53.552;10.092;2023-02-28T02:02:48;7.03;;;2.33;;
72284;SDS011;60220;53.552;10.092;2023-02-28T02:05:20;11.38;;;2.80;;
72284;SDS011;60220;53.552;10.092;2023-02-28T02:07:50;5.05;;;2.45;;
72284;SDS011;60220;53.552;10.092;2023-02-28T02:10:21;10.68;;;3.13;;
72284;SDS011;60220;53.552;10.092;2023-02-28T02:15:54;11.23;;;3.30;;
72284;SDS011;60220;53.552;10.092;2023-02-28T02:18:29;6.78;;;3.10;;
72284;SDS011;60220;53.552;10.092;2023-02-28T02:21:11;5.18;;;2.88;;
72284;SDS011;60220;53.552;10.092;2023-02-28T02:26:47;7.68;;;3.50;;
72284;SDS011;60220;53.552;10.092;2023-02-28T02:29:32;12.45;;;3.15;;
72284;SDS011;60220;53.552;10.092;2023-02-28T02:35:00;9.93;;;2.88;;
72284;SDS011;60220;53.552;10.092;2023-02-28T02:37:40;8.65;;;3.08;;
72284;SDS011;60220;53.552;10.092;2023-02-28T02:40:13;12.55;;;3.35;;
72284;SDS011;60220;53.552;10.092;2023-02-28T02:42:45;12.15;;;3.60;;
72284;SDS011;60220;53.552;10.092;2023-02-28T02:45:18;7.38;;;3.38;;
72284;SDS011;60220;53.552;10.092;2023-02-28T02:47:51;9.10;;;3.45;;
72284;SDS011;60220;53.552;10.092;2023-02-28T02:50:22;7.85;;;3.30;;
72284;SDS011;60220;53.552;10.092;2023-02-28T02:52:54;6.68;;;3.42;;
72284;SDS011;60220;53.552;10.092;2023-02-28T02:55:27;12.80;;;3.85;;
72284;SDS011;60220;53.552;10.092;2023-02-28T02:57:57;9.70;;;4.22;;
72284;SDS011;60220;53.552;10.092;2023-02-28T03:00:29;11.10;;;3.90;;
72284;SDS011;60220;53.552;10.092;2023-02-28T03:03:01;12.48;;;4.72;;
72284;SDS011;60220;53.552;10.092;2023-02-28T03:05:32;9.52;;;4.10;;
72284;SDS011;60220;53.552;10.092;2023-02-28T03:08:03;7.03;;;4.20;;
72284;SDS011;60220;53.552;10.092;2023-02-28T03:10:35;9.25;;;4.18;;
72284;SDS011;60220;53.552;10.092;2023-02-28T03:16:07;17.20;;;8.07;;
72284;SDS011;60220;53.552;10.092;2023-02-28T03:19:00;11.60;;;4.63;;
72284;SDS011;60220;53.552;10.092;2023-02-28T03:21:35;10.70;;;4.68;;
72284;SDS011;60220;53.552;10.092;2023-02-28T03:24:10;10.07;;;4.72;;
72284;SDS011;60220;53.552;10.092;2023-02-28T03:26:45;10.25;;;4.07;;
72284;SDS011;60220;53.552;10.092;2023-02-28T03:29:22;8.20;;;4.53;;
72284;SDS011;60220;53.552;10.092;2023-02-28T03:31:58;7.47;;;4.45;;
72284;SDS011;60220;53.552;10.092;2023-02-28T03:34:30;24.95;;;9.82;;
72284;SDS011;60220;53.552;10.092;2023-02-28T03:37:03;24.42;;;12.93;;
72284;SDS011;60220;53.552;10.092;2023-02-28T03:39:36;10.18;;;5.57;;
72284;SDS011;60220;53.552;10.092;2023-02-28T03:42:08;12.70;;;5.30;;
72284;SDS011;60220;53.552;10.092;2023-02-28T03:44:39;7.70;;;5.00;;
72284;SDS011;60220;53.552;10.092;2023-02-28T03:47:10;14.77;;;5.63;;
72284;SDS011;60220;53.552;10.092;2023-02-28T03:49:43;13.45;;;5.25;;
72284;SDS011;60220;53.552;10.092;2023-02-28T03:52:14;9.00;;;5.65;;
72284;SDS011;60220;53.552;10.092;2023-02-28T03:54:41;9.82;;;4.50;;
72284;SDS011;60220;53.552;10.092;2023-02-28T03:57:11;9.45;;;5.43;;
72284;SDS011;60220;53.552;10.092;2023-02-28T03:59:47;9.52;;;4.75;;
72284;SDS011;60220;53.552;10.092;2023-02-28T04:02:18;13.00;;;5.13;;
72284;SDS011;60220;53.552;10.092;2023-02-28T04:04:45;8.43;;;5.05;;
72284;SDS011;60220;53.552;10.092;2023-02-28T04:07:16;41.53;;;18.50;;
72284;SDS011;60220;53.552;10.092;2023-02-28T04:09:43;12.23;;;5.55;;
72284;SDS011;60220;53.552;10.092;2023-02-28T04:12:12;9.23;;;4.68;;
72284;SDS011;60220;53.552;10.092;2023-02-28T04:14:39;11.70;;;4.30;;
72284;SDS011;60220;53.552;10.092;2023-02-28T04:17:05;8.32;;;5.13;;
72284;SDS011;60220;53.552;10.092;2023-02-28T04:19:32;11.25;;;5.25;;
72284;SDS011;60220;53.552;10.092;2023-02-28T04:21:59;12.93;;;6.40;;
72284;SDS011;60220;53.552;10.092;2023-02-28T04:24:27;43.47;;;19.33;;
72284;SDS011;60220;53.552;10.092;2023-02-28T04:26:57;22.05;;;9.05;;
72284;SDS011;60220;53.552;10.092;2023-02-28T04:29:26;10.98;;;5.30;;
72284;SDS011;60220;53.552;10.092;2023-02-28T04:31:54;10.75;;;4.50;;
72284;SDS011;60220;53.552;10.092;2023-02-28T04:34:22;12.70;;;4.78;;
72284;SDS011;60220;53.552;10.092;2023-02-28T04:36:52;7.25;;;4.88;;
72284;SDS011;60220;53.552;10.092;2023-02-28T04:39:19;8.27;;;4.65;;
72284;SDS011;60220;53.552;10.092;2023-02-28T04:41:48;8.93;;;4.63;;
72284;SDS011;60220;53.552;10.092;2023-02-28T04:44:18;13.30;;;5.80;;
72284;SDS011;60220;53.552;10.092;2023-02-28T04:46:48;13.95;;;6.35;;
72284;SDS011;60220;53.552;10.092;2023-02-28T04:49:15;10.23;;;5.85;;
72284;SDS011;60220;53.552;10.092;2023-02-28T04:51:42;13.85;;;4.72;;
72284;SDS011;60220;53.552;10.092;2023-02-28T04:54:08;10.52;;;5.05;;
72284;SDS011;60220;53.552;10.092;2023-02-28T04:56:35;18.75;;;11.02;;
72284;SDS011;60220;53.552;10.092;2023-02-28T04:59:03;52.70;;;23.52;;
72284;SDS011;60220;53.552;10.092;2023-02-28T05:01:30;9.05;;;5.07;;
72284;SDS011;60220;53.552;10.092;2023-02-28T05:03:59;6.65;;;4.93;;
72284;SDS011;60220;53.552;10.092;2023-02-28T05:06:29;8.38;;;5.40;;
72284;SDS011;60220;53.552;10.092;2023-02-28T05:08:57;11.27;;;5.30;;
72284;SDS011;60220;53.552;10.092;2023-02-28T05:11:24;9.55;;;5.68;;
72284;SDS011;60220;53.552;10.092;2023-02-28T05:13:56;14.23;;;6.00;;
72284;SDS011;60220;53.552;10.092;2023-02-28T05:16:27;10.55;;;5.35;;
72284;SDS011;60220;53.552;10.092;2023-02-28T05:18:54;11.07;;;5.28;;
72284;SDS011;60220;53.552;10.092;2023-02-28T05:21:22;10.73;;;5.57;;
72284;SDS011;60220;53.552;10.092;2023-02-28T05:23:51;10.30;;;6.18;;
72284;SDS011;60220;53.552;10.092;2023-02-28T05:26:18;12.40;;;6.20;;
72284;SDS011;60220;53.552;10.092;2023-02-28T05:28:45;11.13;;;5.38;;
72284;SDS011;60220;53.552;10.092;2023-02-28T05:31:12;13.55;;;5.40;;
72284;SDS011;60220;53.552;10.092;2023-02-28T05:33:40;11.45;;;5.35;;
72284;SDS011;60220;53.552;10.092;2023-02-28T05:36:09;9.35;;;5.82;;
72284;SDS011;60220;53.552;10.092;2023-02-28T05:38:36;12.15;;;5.75;;
72284;SDS011;60220;53.552;10.092;2023-02-28T05:41:04;11.32;;;5.40;;
72284;SDS011;60220;53.552;10.092;2023-02-28T05:43:34;10.25;;;5.40;;
72284;SDS011;60220;53.552;10.092;2023-02-28T05:46:04;8.95;;;5.18;;
72284;SDS011;60220;53.552;10.092;2023-02-28T05:48:32;21.58;;;11.32;;
72284;SDS011;60220;53.552;10.092;2023-02-28T05:51:03;19.95;;;7.25;;
72284;SDS011;60220;53.552;10.092;2023-02-28T05:53:33;8.52;;;5.38;;
72284;SDS011;60220;53.552;10.092;2023-02-28T05:56:00;13.02;;;5.45;;
72284;SDS011;60220;53.552;10.092;2023-02-28T05:58:28;11.82;;;6.10;;
72284;SDS011;60220;53.552;10.092;2023-02-28T06:00:59;9.93;;;5.50;;
72284;SDS011;60220;53.552;10.092;2023-02-28T06:03:27;9.43;;;5.53;;
72284;SDS011;60220;53.552;10.092;2023-02-28T06:05:56;10.48;;;6.20;;
72284;SDS011;60220;53.552;10.092;2023-02-28T06:08:27;13.65;;;6.28;;
72284;SDS011;60220;53.552;10.092;2023-02-28T06:10:53;11.13;;;5.38;;
72284;SDS011;60220;53.552;10.092;2023-02-28T06:13:20;10.05;;;5.53;;
72284;SDS011;60220;53.552;10.092;2023-02-28T06:15:46;11.85;;;6.10;;
72284;SDS011;60220;53.552;10.092;2023-02-28T06:18:15;25.10;;;11.50;;
72284;SDS011;60220;53.552;10.092;2023-02-28T06:20:42;10.45;;;5.72;;
72284;SDS011;60220;53.552;10.092;2023-02-28T06:23:09;12.00;;;6.13;;
72284;SDS011;60220;53.552;10.092;2023-02-28T06:25:37;18.65;;;6.50;;
72284;SDS011;60220;53.552;10.092;2023-02-28T06:28:04;12.52;;;6.07;;
72284;SDS011;60220;53.552;10.092;2023-02-28T06:30:31;15.85;;;6.03;;
72284;SDS011;60220;53.552;10.092;2023-02-28T06:32:58;14.05;;;5.60;;
72284;SDS011;60220;53.552;10.092;2023-02-28T06:35:25;8.52;;;5.43;;
72284;SDS011;60220;53.552;10.092;2023-02-28T06:37:52;16.15;;;6.30;;
72284;SDS011;60220;53.552;10.092;2023-02-28T06:40:18;12.57;;;5.65;;
72284;SDS011;60220;53.552;10.092;2023-02-28T06:42:46;12.23;;;6.18;;
72284;SDS011;60220;53.552;10.092;2023-02-28T06:45:15;15.93;;;6.63;;
72284;SDS011;60220;53.552;10.092;2023-02-28T06:47:45;14.82;;;6.05;;
72284;SDS011;60220;53.552;10.092;2023-02-28T06:50:17;15.13;;;5.75;;
72284;SDS011;60220;53.552;10.092;2023-02-28T06:52:45;13.55;;;5.85;;
72284;SDS011;60220;53.552;10.092;2023-02-28T06:55:14;11.75;;;5.68;;
72284;SDS011;60220;53.552;10.092;2023-02-28T06:57:42;14.38;;;5.75;;
72284;SDS011;60220;53.552;10.092;2023-02-28T07:00:13;16.23;;;6.32;;
72284;SDS011;60220;53.552;10.092;2023-02-28T07:02:40;12.65;;;5.50;;
72284;SDS011;60220;53.552;10.092;2023-02-28T07:05:09;16.45;;;5.03;;
72284;SDS011;60220;53.552;10.092;2023-02-28T07:07:36;11.65;;;5.32;;
72284;SDS011;60220;53.552;10.092;2023-02-28T07:10:05;12.43;;;6.10;;
72284;SDS011;60220;53.552;10.092;2023-02-28T07:12:32;9.10;;;5.68;;
72284;SDS011;60220;53.552;10.092;2023-02-28T07:14:59;8.02;;;4.97;;
72284;SDS011;60220;53.552;10.092;2023-02-28T07:17:27;9.93;;;4.93;;
72284;SDS011;60220;53.552;10.092;2023-02-28T07:19:54;9.32;;;5.72;;
72284;SDS011;60220;53.552;10.092;2023-02-28T07:22:21;9.82;;;5.22;;
72284;SDS011;60220;53.552;10.092;2023-02-28T07:24:47;11.65;;;5.32;;
72284;SDS011;60220;53.552;10.092;2023-02-28T07:27:14;10.70;;;5.75;;
72284;SDS011;60220;53.552;10.092;2023-02-28T07:32:15;12.68;;;5.65;;
72284;SDS011;60220;53.552;10.092;2023-02-28T07:34:43;13.65;;;6.90;;
72284;SDS011;60220;53.552;10.092;2023-02-28T07:37:09;12.07;;;6.45;;
72284;SDS011;60220;53.552;10.092;2023-02-28T07:39:39;12.48;;;5.63;;
72284;SDS011;60220;53.552;10.092;2023-02-28T07:42:07;11.10;;;5.20;;
72284;SDS011;60220;53.552;10.092;2023-02-28T07:44:35;7.25;;;4.70;;
72284;SDS011;60220;53.552;10.092;2023-02-28T07:47:05;17.90;;;5.88;;
72284;SDS011;60220;53.552;10.092;2023-02-28T07:49:32;9.75;;;5.22;;
72284;SDS011;60220;53.552;10.092;2023-02-28T07:52:03;12.82;;;5.75;;
72284;SDS011;60220;53.552;10.092;2023-02-28T07:54:29;10.85;;;6.10;;
72284;SDS011;60220;53.552;10.092;2023-02-28T07:56:56;11.23;;;5.15;;
72284;SDS011;60220;53.552;10.092;2023-02-28T07:59:23;13.98;;;5.65;;
72284;SDS011;60220;53.552;10.092;2023-02-28T08:01:50;9.88;;;5.68;;
72284;SDS011;60220;53.552;10.092;2023-02-28T08:04:17;9.52;;;5.32;;
72284;SDS011;60220;53.552;10.092;2023-02-28T08:06:45;12.43;;;5.18;;
72284;SDS011;60220;53.552;10.092;2023-02-28T08:09:15;10.40;;;5.40;;
72284;SDS011;60220;53.552;10.092;2023-02-28T08:11:44;10.85;;;5.65;;
72284;SDS011;60220;53.552;10.092;2023-02-28T08:14:10;14.15;;;5.25;;
72284;SDS011;60220;53.552;10.092;2023-02-28T08:16:37;15.73;;;5.28;;
72284;SDS011;60220;53.552;10.092;2023-02-28T08:19:06;11.13;;;5.20;;
72284;SDS011;60220;53.552;10.092;2023-02-28T08:21:32;14.05;;;4.90;;
72284;SDS011;60220;53.552;10.092;2023-02-28T08:23:59;16.58;;;5.40;;
72284;SDS011;60220;53.552;10.092;2023-02-28T08:26:27;27.92;;;9.68;;
72284;SDS011;60220;53.552;10.092;2023-02-28T08:28:54;28.80;;;5.45;;
72284;SDS011;60220;53.552;10.092;2023-02-28T08:31:21;10.50;;;5.10;;
72284;SDS011;60220;53.552;10.092;2023-02-28T08:33:48;16.75;;;5.05;;
72284;SDS011;60220;53.552;10.092;2023-02-28T08:36:17;11.55;;;5.30;;
72284;SDS011;60220;53.552;10.092;2023-02-28T08:38:44;15.40;;;5.20;;
72284;SDS011;60220;53.552;10.092;2023-02-28T08:41:12;14.07;;;5.32;;
72284;SDS011;60220;53.552;10.092;2023-02-28T08:43:40;9.52;;;4.72;;
72284;SDS011;60220;53.552;10.092;2023-02-28T08:46:07;15.10;;;4.43;;
72284;SDS011;60220;53.552;10.092;2023-02-28T08:48:37;13.30;;;4.63;;
72284;SDS011;60220;53.552;10.092;2023-02-28T08:51:07;10.95;;;4.25;;
72284;SDS011;60220;53.552;10.092;2023-02-28T08:53:36;7.90;;;4.20;;
72284;SDS011;60220;53.552;10.092;2023-02-28T08:56:04;11.98;;;4.68;;
72284;SDS011;60220;53.552;10.092;2023-02-28T08:58:34;9.18;;;3.72;;
72284;SDS011;60220;53.552;10.092;2023-02-28T09:01:08;9.15;;;4.00;;
72284;SDS011;60220;53.552;10.092;2023-02-28T09:03:37;28.30;;;4.82;;
72284;SDS011;60220;53.552;10.092;2023-02-28T09:06:06;11.88;;;3.50;;
72284;SDS011;60220;53.552;10.092;2023-02-28T09:08:38;10.60;;;3.70;;
72284;SDS011;60220;53.552;10.092;2023-02-28T09:11:05;11.25;;;3.17;;
72284;SDS011;60220;53.552;10.092;2023-02-28T09:13:32;8.75;;;3.65;;
72284;SDS011;60220;53.552;10.092;2023-02-28T09:15:59;11.45;;;3.53;;
72284;SDS011;60220;53.552;10.092;2023-02-28T09:18:28;9.05;;;3.83;;
72284;SDS011;60220;53.552;10.092;2023-02-28T09:20:56;9.00;;;3.97;;
72284;SDS011;60220;53.552;10.092;2023-02-28T09:23:23;8.20;;;3.08;;
72284;SDS011;60220;53.552;10.092;2023-02-28T09:25:51;15.43;;;3.97;;
72284;SDS011;60220;53.552;10.092;2023-02-28T09:28:20;11.05;;;3.90;;
72284;SDS011;60220;53.552;10.092;2023-02-28T09:30:50;9.15;;;3.92;;
72284;SDS011;60220;53.552;10.092;2023-02-28T09:33:17;14.40;;;3.13;;
72284;SDS011;60220;53.552;10.092;2023-02-28T09:35:47;5.25;;;2.45;;
72284;SDS011;60220;53.552;10.092;2023-02-28T09:38:15;9.90;;;3.58;;
72284;SDS011;60220;53.552;10.092;2023-02-28T09:40:47;6.22;;;2.22;;
72284;SDS011;60220;53.552;10.092;2023-02-28T09:43:17;7.03;;;3.42;;
72284;SDS011;60220;53.552;10.092;2023-02-28T09:45:47;11.38;;;3.25;;
72284;SDS011;60220;53.552;10.092;2023-02-28T09:48:18;4.88;;;2.30;;
72284;SDS011;60220;53.552;10.092;2023-02-28T09:50:49;7.43;;;2.72;;
72284;SDS011;60220;53.552;10.092;2023-02-28T09:53:19;6.03;;;1.60;;
72284;SDS011;60220;53.552;10.092;2023-02-28T09:55:52;7.30;;;1.83;;
72284;SDS011;60220;53.552;10.092;2023-02-28T09:58:23;3.53;;;1.65;;
72284;SDS011;60220;53.552;10.092;2023-02-28T10:00:58;3.75;;;1.70;;
72284;SDS011;60220;53.552;10.092;2023-02-28T10:03:30;4.53;;;1.75;;
72284;SDS011;60220;53.552;10.092;2023-02-28T10:06:05;6.65;;;1.77;;
72284;SDS011;60220;53.552;10.092;2023-02-28T10:08:38;7.05;;;2.28;;
72284;SDS011;60220;53.552;10.092;2023-02-28T10:11:11;4.07;;;1.88;;
72284;SDS011;60220;53.552;10.092;2023-02-28T10:13:45;3.47;;;1.40;;
72284;SDS011;60220;53.552;10.092;2023-02-28T10:16:20;3.88;;;1.77;;
72284;SDS011;60220;53.552;10.092;2023-02-28T10:18:53;2.75;;;1.25;;
72284;SDS011;60220;53.552;10.092;2023-02-28T10:21:26;3.58;;;1.45;;
72284;SDS011;60220;53.552;10.092;2023-02-28T10:24:01;2.83;;;1.25;;
72284;SDS011;60220;53.552;10.092;2023-02-28T10:28:58;2.97;;;1.10;;
72284;SDS011;60220;53.552;10.092;2023-02-28T10:31:28;2.75;;;1.48;;
72284;SDS011;60220;53.552;10.092;2023-02-28T10:33:55;4.25;;;1.52;;
72284;SDS011;60220;53.552;10.092;2023-02-28T10:36:22;2.28;;;1.45;;
72284;SDS011;60220;53.552;10.092;2023-02-28T10:38:53;4.95;;;2.28;;
72284;SDS011;60220;53.552;10.092;2023-02-28T10:41:27;5.25;;;1.42;;
72284;SDS011;60220;53.552;10.092;2023-02-28T10:44:13;3.53;;;1.52;;
72284;SDS011;60220;53.552;10.092;2023-02-28T10:46:44;3.47;;;1.45;;
72284;SDS011;60220;53.552;10.092;2023-02-28T10:49:15;4.05;;;1.23;;
72284;SDS011;60220;53.552;10.092;2023-02-28T10:51:46;7.25;;;1.40;;
72284;SDS011;60220;53.552;10.092;2023-02-28T10:54:16;2.70;;;1.52;;
72284;SDS011;60220;53.552;10.092;2023-02-28T10:56:45;3.67;;;1.38;;
72284;SDS011;60220;53.552;10.092;2023-02-28T10:59:28;2.78;;;1.40;;
72284;SDS011;60220;53.552;10.092;2023-02-28T11:01:55;5.60;;;1.85;;
72284;SDS011;60220;53.552;10.092;2023-02-28T11:04:33;2.13;;;1.15;;
72284;SDS011;60220;53.552;10.092;2023-02-28T11:07:03;5.85;;;1.60;;
72284;SDS011;60220;53.552;10.092;2023-02-28T11:09:34;2.75;;;1.42;;
72284;SDS011;60220;53.552;10.092;2023-02-28T11:12:07;3.88;;;1.23;;
72284;SDS011;60220;53.552;10.092;2023-02-28T11:14:46;2.20;;;1.30;;
72284;SDS011;60220;53.552;10.092;2023-02-28T11:17:18;3.15;;;1.20;;
72284;SDS011;60220;53.552;10.092;2023-02-28T11:19:47;4.15;;;1.63;;
72284;SDS011;60220;53.552;10.092;2023-02-28T11:22:23;4.60;;;1.63;;
72284;SDS011;60220;53.552;10.092;2023-02-28T11:24:55;4.65;;;1.85;;
72284;SDS011;60220;53.552;10.092;2023-02-28T11:27:26;1.90;;;1.35;;
72284;SDS011;60220;53.552;10.092;2023-02-28T11:30:26;14.13;;;6.53;;
72284;SDS011;60220;53.552;10.092;2023-02-28T11:32:57;3.50;;;1.50;;
72284;SDS011;60220;53.552;10.092;2023-02-28T11:35:28;8.32;;;1.88;;
72284;SDS011;60220;53.552;10.092;2023-02-28T11:37:59;3.67;;;1.83;;
72284;SDS011;60220;53.552;10.092;2023-02-28T11:40:30;3.53;;;1.67;;
72284;SDS011;60220;53.552;10.092;2023-02-28T11:43:09;3.17;;;1.73;;
72284;SDS011;60220;53.552;10.092;2023-02-28T11:45:53;5.90;;;2.58;;
72284;SDS011;60220;53.552;10.092;2023-02-28T11:51:07;8.93;;;1.60;;
72284;SDS011;60220;53.552;10.092;2023-02-28T11:53:50;1.95;;;1.20;;
72284;SDS011;60220;53.552;10.092;2023-02-28T11:56:31;2.30;;;1.67;;
72284;SDS011;60220;53.552;10.092;2023-02-28T12:01:38;3.38;;;1.55;;
72284;SDS011;60220;53.552;10.092;2023-02-28T12:04:25;4.17;;;1.80;;
72284;SDS011;60220;53.552;10.092;2023-02-28T12:07:00;8.25;;;1.48;;
72284;SDS011;60220;53.552;10.092;2023-02-28T12:09:41;3.72;;;1.40;;
72284;SDS011;60220;53.552;10.092;2023-02-28T12:12:22;3.15;;;1.30;;
72284;SDS011;60220;53.552;10.092;2023-02-28T12:15:20;10.07;;;2.00;;
72284;SDS011;60220;53.552;10.092;2023-02-28T12:17:59;3.30;;;1.63;;
72284;SDS011;60220;53.552;10.092;2023-02-28T12:20:44;3.30;;;1.13;;
72284;SDS011;60220;53.552;10.092;2023-02-28T12:23:21;4.22;;;1.75;;
72284;SDS011;60220;53.552;10.092;2023-02-28T12:26:00;6.50;;;1.35;;
72284;SDS011;60220;53.552;10.092;2023-02-28T12:28:37;3.47;;;1.20;;
72284;SDS011;60220;53.552;10.092;2023-02-28T12:31:09;5.38;;;1.77;;
72284;SDS011;60220;53.552;10.092;2023-02-28T12:33:43;4.60;;;1.00;;
72284;SDS011;60220;53.552;10.092;2023-02-28T12:36:14;2.05;;;1.20;;
72284;SDS011;60220;53.552;10.092;2023-02-28T12:38:50;4.18;;;0.88;;
72284;SDS011;60220;53.552;10.092;2023-02-28T12:43:55;4.32;;;1.10;;
72284;SDS011;60220;53.552;10.092;2023-02-28T12:46:28;1.83;;;1.23;;
72284;SDS011;60220;53.552;10.092;2023-02-28T12:48:59;3.92;;;1.00;;
72284;SDS011;60220;53.552;10.092;2023-02-28T12:51:33;3.38;;;1.10;;
72284;SDS011;60220;53.552;10.092;2023-02-28T12:54:04;6.05;;;1.40;;
72284;SDS011;60220;53.552;10.092;2023-02-28T12:56:41;4.47;;;1.17;;
72284;SDS011;60220;53.552;10.092;2023-02-28T12:59:14;6.50;;;1.20;;
72284;SDS011;60220;53.552;10.092;2023-02-28T13:04:50;1.85;;;1.13;;
72284;SDS011;60220;53.552;10.092;2023-02-28T13:07:47;3.47;;;1.40;;
72284;SDS011;60220;53.552;10.092;2023-02-28T13:10:50;3.88;;;1.15;;
72284;SDS011;60220;53.552;10.092;2023-02-28T13:13:19;3.92;;;1.08;;
72284;SDS011;60220;53.552;10.092;2023-02-28T13:15:59;4.78;;;1.23;;
72284;SDS011;60220;53.552;10.092;2023-02-28T13:18:30;2.60;;;0.82;;
72284;SDS011;60220;53.552;10.092;2023-02-28T13:21:01;1.65;;;1.13;;
72284;SDS011;60220;53.552;10.092;2023-02-28T13:23:38;5.53;;;1.40;;
72284;SDS011;60220;53.552;10.092;2023-02-28T13:29:38;3.95;;;1.35;;
72284;SDS011;60220;53.552;10.092;2023-02-28T13:32:27;2.72;;;1.05;;
72284;SDS011;60220;53.552;10.092;2023-02-28T13:35:14;2.10;;;1.20;;
72284;SDS011;60220;53.552;10.092;2023-02-28T13:38:15;3.63;;;1.33;;
72284;SDS011;60220;53.552;10.092;2023-02-28T13:40:43;2.90;;;1.00;;
72284;SDS011;60220;53.552;10.092;2023-02-28T13:43:10;4.20;;;1.88;;
72284;SDS011;60220;53.552;10.092;2023-02-28T13:45:37;4.00;;;1.40;;
72284;SDS011;60220;53.552;10.092;2023-02-28T13:48:16;5.78;;;1.10;;
72284;SDS011;60220;53.552;10.092;2023-02-28T13:50:47;3.92;;;1.30;;
72284;SDS011;60220;53.552;10.092;2023-02-28T13:53:26;3.08;;;1.25;;
72284;SDS011;60220;53.552;10.092;2023-02-28T13:56:01;3.08;;;1.10;;
72284;SDS011;60220;53.552;10.092;2023-02-28T13:58:35;2.45;;;1.58;;
72284;SDS011;60220;53.552;10.092;2023-02-28T14:01:22;2.83;;;0.88;;
72284;SDS011;60220;53.552;10.092;2023-02-28T14:04:06;2.28;;;1.02;;
72284;SDS011;60220;53.552;10.092;2023-02-28T14:06:46;4.05;;;1.38;;
72284;SDS011;60220;53.552;10.092;2023-02-28T14:09:18;6.38;;;1.40;;
72284;SDS011;60220;53.552;10.092;2023-02-28T14:11:52;3.50;;;1.10;;
72284;SDS011;60220;53.552;10.092;2023-02-28T14:17:23;2.92;;;0.98;;
72284;SDS011;60220;53.552;10.092;2023-02-28T14:19:52;3.92;;;1.50;;
72284;SDS011;60220;53.552;10.092;2023-02-28T14:22:26;5.32;;;1.15;;
72284;SDS011;60220;53.552;10.092;2023-02-28T14:25:11;8.85;;;1.48;;
72284;SDS011;60220;53.552;10.092;2023-02-28T14:27:48;4.05;;;1.02;;
72284;SDS011;60220;53.552;10.092;2023-02-28T14:33:27;5.13;;;1.00;;
72284;SDS011;60220;53.552;10.092;2023-02-28T14:36:06;1.48;;;1.00;;
72284;SDS011;60220;53.552;10.092;2023-02-28T14:38:40;2.78;;;1.20;;
72284;SDS011;60220;53.552;10.092;2023-02-28T14:41:16;6.25;;;1.40;;
72284;SDS011;60220;53.552;10.092;2023-02-28T14:43:51;3.83;;;1.40;;
72284;SDS011;60220;53.552;10.092;2023-02-28T14:46:20;4.75;;;1.58;;
72284;SDS011;60220;53.552;10.092;2023-02-28T14:48:49;5.88;;;1.30;;
72284;SDS011;60220;53.552;10.092;2023-02-28T14:51:21;5.70;;;1.65;;
72284;SDS011;60220;53.552;10.092;2023-02-28T14:53:51;7.57;;;1.30;;
72284;SDS011;60220;53.552;10.092;2023-02-28T14:56:23;7.95;;;1.70;;
72284;SDS011;60220;53.552;10.092;2023-02-28T14:58:53;3.78;;;1.60;;
72284;SDS011;60220;53.552;10.092;2023-02-28T15:01:22;4.45;;;1.30;;
72284;SDS011;60220;53.552;10.092;2023-02-28T15:03:56;5.38;;;1.58;;
72284;SDS011;60220;53.552;10.092;2023-02-28T15:06:26;4.82;;;1.10;;
72284;SDS011;60220;53.552;10.092;2023-02-28T15:09:13;2.10;;;1.20;;
72284;SDS011;60220;53.552;10.092;2023-02-28T15:11:41;3.75;;;1.33;;
72284;SDS011;60220;53.552;10.092;2023-02-28T15:14:15;5.60;;;1.58;;
72284;SDS011;60220;53.552;10.092;2023-02-28T15:16:45;4.45;;;1.55;;
72284;SDS011;60220;53.552;10.092;2023-02-28T15:19:18;3.15;;;1.40;;
72284;SDS011;60220;53.552;10.092;2023-02-28T15:21:51;3.03;;;1.10;;
72284;SDS011;60220;53.552;10.092;2023-02-28T15:24:23;1.75;;;1.05;;
72284;SDS011;60220;53.552;10.092;2023-02-28T15:26:59;2.08;;;1.13;;
72284;SDS011;60220;53.552;10.092;2023-02-28T15:29:30;3.55;;;1.33;;